TimeCDT,TemperatureF,Dew PointF,Humidity,Sea Level PressureIn,VisibilityMPH,Wind Direction,Wind SpeedMPH,Gust SpeedMPH,PrecipitationIn,Events,Conditions,WindDirDegrees,DateUTC
12:54 AM,75.9,69.1,79,30.23,10.0,South,4.6,-,N/A,,Clear,190,2013-08-26 05:54:00
1:54 AM,75.0,69.1,82,30.22,10.0,Calm,Calm,-,N/A,,Clear,0,2013-08-26 06:54:00
2:54 AM,73.0,69.1,87,30.22,8.0,Calm,Calm,-,N/A,,Clear,0,2013-08-26 07:54:00
3:54 AM,70.0,68.0,93,30.22,6.0,Calm,Calm,-,N/A,,Clear,0,2013-08-26 08:54:00
4:09 AM,69.8,68.0,94,30.23,1.8,Calm,Calm,-,N/A,,Clear,0,2013-08-26 09:09:00
4:18 AM,69.8,68.0,94,30.23,3.0,Calm,Calm,-,N/A,,Clear,0,2013-08-26 09:18:00
4:54 AM,70.0,68.0,93,30.22,7.0,Calm,Calm,-,N/A,,Clear,0,2013-08-26 09:54:00
5:54 AM,71.1,68.0,90,30.23,7.0,Calm,Calm,-,N/A,,Clear,0,2013-08-26 10:54:00
6:54 AM,72.0,69.1,91,30.25,7.0,SSW,3.5,-,N/A,,Clear,210,2013-08-26 11:54:00
7:54 AM,75.9,71.1,85,30.26,8.0,SSW,3.5,-,N/A,,Clear,210,2013-08-26 12:54:00
8:54 AM,79.0,70.0,74,30.26,10.0,WSW,5.8,-,N/A,,Clear,240,2013-08-26 13:54:00
9:54 AM,82.0,71.1,69,30.25,10.0,SW,9.2,-,N/A,,Clear,220,2013-08-26 14:54:00
10:54 AM,84.9,72.0,65,30.24,10.0,WSW,8.1,-,N/A,,Clear,250,2013-08-26 15:54:00
11:54 AM,87.1,72.0,61,30.22,10.0,WSW,5.8,-,N/A,,Mostly Cloudy,240,2013-08-26 16:54:00
12:54 PM,88.0,70.0,55,30.20,10.0,Variable,6.9,-,N/A,,Partly Cloudy,0,2013-08-26 17:54:00
1:54 PM,89.1,71.1,55,30.18,10.0,West,8.1,-,N/A,,Partly Cloudy,260,2013-08-26 18:54:00
2:54 PM,87.1,70.0,57,30.15,10.0,SSW,5.8,-,N/A,,Partly Cloudy,210,2013-08-26 19:54:00
3:54 PM,90.0,71.1,54,30.14,10.0,WSW,11.5,-,N/A,,Mostly Cloudy,250,2013-08-26 20:54:00
4:54 PM,88.0,71.1,57,30.12,10.0,SSW,10.4,-,N/A,,Partly Cloudy,210,2013-08-26 21:54:00
5:54 PM,84.9,71.1,63,30.11,9.0,SW,9.2,-,N/A,,Clear,220,2013-08-26 22:54:00
6:54 PM,82.9,71.1,67,30.11,9.0,SW,8.1,-,N/A,,Clear,220,2013-08-26 23:54:00
7:54 PM,80.1,71.1,74,30.11,9.0,SSW,4.6,-,N/A,,Clear,210,2013-08-27 00:54:00
8:54 PM,78.1,71.1,79,30.12,8.0,SW,8.1,-,N/A,,Clear,220,2013-08-27 01:54:00
9:54 PM,78.1,72.0,81,30.12,8.0,SSW,5.8,-,N/A,,Clear,210,2013-08-27 02:54:00
10:54 PM,77.0,72.0,84,30.11,8.0,SW,6.9,-,N/A,,Clear,220,2013-08-27 03:54:00
11:54 PM,75.0,71.1,87,30.12,8.0,SW,4.6,-,N/A,,Clear,220,2013-08-27 04:54:00